createdAt,value
2022-11-27T00:01:59.859Z,10.20
2022-11-27T00:04:29.956Z,10.00
2022-11-27T00:07:02.503Z,10.00
2022-11-27T00:09:33.654Z,10.00
2022-11-27T00:12:03.657Z,9.10
2022-11-27T00:17:04.142Z,9.40
2022-11-27T00:19:34.279Z,8.80
2022-11-27T00:22:06.967Z,9.80
2022-11-27T00:24:37.434Z,10.40
2022-11-27T00:27:07.756Z,9.80
2022-11-27T00:29:37.919Z,9.80
2022-11-27T00:32:08.313Z,10.20
2022-11-27T00:34:38.871Z,9.20
2022-11-27T00:37:12.298Z,9.70
2022-11-27T00:39:42.348Z,9.70
2022-11-27T00:42:12.427Z,9.80
2022-11-27T00:44:42.566Z,8.30
2022-11-27T00:47:12.562Z,9.90
2022-11-27T00:49:42.964Z,9.90
2022-11-27T00:52:15.902Z,9.50
2022-11-27T00:54:46.205Z,9.80
2022-11-27T00:57:16.229Z,10.50
2022-11-27T00:59:46.243Z,9.60
2022-11-27T01:04:49.334Z,9.90
2022-11-27T01:07:22.043Z,9.90
2022-11-27T01:09:55.049Z,9.90
2022-11-27T01:12:25.265Z,10.00
2022-11-27T01:14:55.465Z,10.00
2022-11-27T01:19:55.706Z,9.90
2022-11-27T01:22:28.348Z,10.10
2022-11-27T01:24:58.402Z,9.80
2022-11-27T01:27:28.538Z,9.90
2022-11-27T01:29:58.766Z,9.90
2022-11-27T01:32:28.846Z,9.90
2022-11-27T01:35:01.772Z,9.80
2022-11-27T01:37:34.515Z,9.80
2022-11-27T01:40:04.618Z,9.80
2022-11-27T01:42:34.604Z,9.90
2022-11-27T01:45:05.816Z,10.00
2022-11-27T01:47:46.152Z,10.00
2022-11-27T01:50:21.867Z,10.00
2022-11-27T01:52:58.812Z,10.00
2022-11-27T01:55:33.327Z,9.90
2022-11-27T01:58:07.749Z,9.90
2022-11-27T02:00:38.251Z,9.80
2022-11-27T02:03:08.847Z,9.80
2022-11-27T02:08:15.446Z,9.90
2022-11-27T02:10:51.265Z,10.00
2022-11-27T02:13:29.961Z,9.80
2022-11-27T02:16:13.778Z,10.10
2022-11-27T02:18:55.763Z,10.40
2022-11-27T02:21:35.133Z,9.90
2022-11-27T02:24:38.425Z,10.00
2022-11-27T02:27:46.318Z,9.90
2022-11-27T02:30:19.703Z,9.80
2022-11-27T02:32:54.050Z,9.90
2022-11-27T02:35:31.255Z,10.00
2022-11-27T02:38:05.902Z,10.00
2022-11-27T02:40:41.325Z,10.00
2022-11-27T02:43:15.071Z,10.10
2022-11-27T02:45:50.363Z,10.10
2022-11-27T02:48:24.381Z,10.20
2022-11-27T02:50:56.718Z,10.20
2022-11-27T02:53:32.439Z,10.20
2022-11-27T02:56:03.444Z,10.10
2022-11-27T02:58:34.000Z,10.10
2022-11-27T03:01:09.205Z,10.20
2022-11-27T03:03:44.968Z,11.30
2022-11-27T03:06:20.843Z,10.20
2022-11-27T03:08:57.293Z,10.30
2022-11-27T03:11:30.843Z,10.30
2022-11-27T03:14:07.849Z,10.30
2022-11-27T03:16:46.301Z,10.30
2022-11-27T03:19:20.983Z,10.40
2022-11-27T03:21:54.918Z,10.30
2022-11-27T03:24:25.038Z,10.20
2022-11-27T03:26:55.662Z,10.20
2022-11-27T03:29:30.449Z,10.20
2022-11-27T03:32:04.259Z,10.10
2022-11-27T03:34:35.484Z,10.10
2022-11-27T03:37:05.944Z,10.90
2022-11-27T03:39:37.099Z,10.20
2022-11-27T03:42:20.025Z,10.20
2022-11-27T03:44:55.022Z,10.30
2022-11-27T03:47:44.111Z,10.20
2022-11-27T03:50:25.833Z,10.40
2022-11-27T03:53:05.361Z,10.40
2022-11-27T03:55:41.339Z,10.40
2022-11-27T03:58:17.938Z,10.40
2022-11-27T04:00:50.983Z,10.40
2022-11-27T04:03:30.557Z,10.20
2022-11-27T04:06:01.005Z,10.30
2022-11-27T04:08:31.452Z,10.40
2022-11-27T04:11:01.821Z,10.40
2022-11-27T04:13:31.867Z,10.40
2022-11-27T04:16:04.287Z,10.50
2022-11-27T04:18:36.975Z,10.60
2022-11-27T04:21:07.391Z,10.40
2022-11-27T04:23:37.800Z,10.40
2022-11-27T04:26:08.678Z,10.20
2022-11-27T04:28:38.673Z,10.10
2022-11-27T04:31:08.988Z,10.10
2022-11-27T04:33:41.602Z,10.10
2022-11-27T04:36:12.052Z,10.20
2022-11-27T04:38:42.048Z,10.10
2022-11-27T04:41:12.134Z,10.20
2022-11-27T04:43:42.205Z,10.20
2022-11-27T04:46:12.299Z,10.20
2022-11-27T04:48:45.002Z,10.20
2022-11-27T04:51:15.246Z,10.10
2022-11-27T04:53:45.418Z,10.10
2022-11-27T04:56:15.571Z,10.10
2022-11-27T04:58:45.567Z,10.40
2022-11-27T05:01:46.521Z,10.00
2022-11-27T05:04:09.726Z,10.00
2022-11-27T05:06:39.747Z,9.90
2022-11-27T05:09:09.788Z,9.80
2022-11-27T05:11:39.902Z,9.10
2022-11-27T05:14:20.690Z,9.70
2022-11-27T05:16:54.011Z,9.70
2022-11-27T05:19:28.885Z,9.60
2022-11-27T05:22:00.604Z,9.80
2022-11-27T05:24:31.918Z,10.80
2022-11-27T05:27:02.103Z,9.90
2022-11-27T05:29:32.979Z,9.90
2022-11-27T05:32:02.959Z,10.30
2022-11-27T05:34:35.559Z,9.80
2022-11-27T05:37:05.755Z,9.80
2022-11-27T05:39:35.964Z,9.70
2022-11-27T05:42:06.051Z,9.60
2022-11-27T05:44:36.040Z,9.20
2022-11-27T05:47:06.136Z,9.60
2022-11-27T05:49:39.384Z,9.40
2022-11-27T05:52:09.437Z,9.40
2022-11-27T05:54:39.680Z,9.30
2022-11-27T05:57:10.202Z,9.40
2022-11-27T05:59:40.134Z,9.40
2022-11-27T06:02:12.855Z,9.40
2022-11-27T06:04:49.277Z,9.60
2022-11-27T06:07:19.720Z,9.30
2022-11-27T06:09:49.747Z,9.40
2022-11-27T06:12:19.787Z,9.50
2022-11-27T06:14:49.710Z,9.60
2022-11-27T06:17:19.839Z,9.50
2022-11-27T06:19:52.447Z,9.20
2022-11-27T06:22:22.573Z,9.60
2022-11-27T06:24:53.034Z,9.70
2022-11-27T06:27:23.246Z,9.90
2022-11-27T06:29:54.195Z,9.80
2022-11-27T06:32:26.739Z,9.70
2022-11-27T06:34:59.619Z,9.70
2022-11-27T06:37:29.962Z,9.60
2022-11-27T06:39:59.933Z,9.50
2022-11-27T06:42:32.703Z,9.60
2022-11-27T06:45:02.721Z,9.10
2022-11-27T06:47:32.706Z,9.60
2022-11-27T06:50:05.367Z,9.60
2022-11-27T06:52:40.146Z,9.80
2022-11-27T06:55:11.244Z,9.80
2022-11-27T06:57:41.398Z,9.60
2022-11-27T07:00:12.574Z,9.70
2022-11-27T07:02:42.580Z,9.70
2022-11-27T07:05:15.406Z,9.70
2022-11-27T07:07:45.490Z,9.20
2022-11-27T07:10:15.762Z,9.50
2022-11-27T07:12:45.937Z,9.80
2022-11-27T07:15:16.591Z,9.90
2022-11-27T07:17:46.759Z,10.90
2022-11-27T07:20:19.621Z,9.80
2022-11-27T07:22:49.906Z,8.00
2022-11-27T07:25:20.767Z,9.80
2022-11-27T07:27:51.369Z,9.70
2022-11-27T07:30:21.488Z,9.70
2022-11-27T07:32:51.653Z,9.70
2022-11-27T07:35:24.480Z,9.80
2022-11-27T07:37:54.525Z,9.70
2022-11-27T07:40:24.728Z,9.60
2022-11-27T07:42:57.894Z,9.60
2022-11-27T07:45:27.946Z,9.60
2022-11-27T07:47:58.285Z,9.70
2022-11-27T07:50:31.370Z,9.90
2022-11-27T07:53:02.172Z,9.80
2022-11-27T07:55:32.329Z,9.90
2022-11-27T07:58:02.461Z,9.80
2022-11-27T08:00:32.549Z,10.60
2022-11-27T08:03:02.932Z,9.90
2022-11-27T08:05:37.092Z,10.50
2022-11-27T08:08:07.884Z,10.10
2022-11-27T08:10:38.644Z,10.10
2022-11-27T08:13:09.793Z,10.00
2022-11-27T08:15:40.495Z,10.10
2022-11-27T08:18:10.583Z,10.10
2022-11-27T08:20:43.369Z,10.10
2022-11-27T08:23:17.557Z,10.20
2022-11-27T08:25:47.561Z,10.10
2022-11-27T08:28:17.753Z,9.20
2022-11-27T08:30:47.833Z,10.10
2022-11-27T08:33:18.120Z,10.10
2022-11-27T08:35:54.512Z,10.10
2022-11-27T08:38:25.214Z,10.10
2022-11-27T08:40:59.640Z,11.80
2022-11-27T08:43:30.291Z,10.10
2022-11-27T08:46:01.126Z,9.70
2022-11-27T08:48:34.152Z,10.20
2022-11-27T08:51:08.567Z,10.30
2022-11-27T08:53:40.294Z,10.20
2022-11-27T08:56:12.302Z,10.30
2022-11-27T08:58:42.778Z,10.20
2022-11-27T09:01:16.661Z,10.10
2022-11-27T09:03:47.348Z,10.20
2022-11-27T09:06:21.736Z,10.20
2022-11-27T09:08:52.590Z,10.20
2022-11-27T09:14:08.885Z,10.20
2022-11-27T09:16:38.630Z,10.20
2022-11-27T09:19:09.051Z,10.10
2022-11-27T09:21:41.713Z,10.00
2022-11-27T09:24:13.020Z,10.20
2022-11-27T09:26:44.882Z,10.20
2022-11-27T09:29:15.016Z,10.30
2022-11-27T09:31:45.067Z,10.20
2022-11-27T09:34:15.424Z,10.20
2022-11-27T09:36:48.672Z,10.10
2022-11-27T09:39:19.711Z,10.50
2022-11-27T09:41:52.326Z,10.20
2022-11-27T09:44:32.336Z,10.40
2022-11-27T09:47:09.290Z,10.40
2022-11-27T09:49:44.530Z,10.00
2022-11-27T09:52:59.203Z,10.30
2022-11-27T09:55:38.905Z,10.30
2022-11-27T09:58:14.575Z,10.20
2022-11-27T10:00:46.664Z,10.20
2022-11-27T10:03:18.627Z,10.30
2022-11-27T10:06:06.336Z,10.10
2022-11-27T10:09:10.544Z,10.20
2022-11-27T10:11:47.835Z,10.20
2022-11-27T10:14:38.879Z,10.20
2022-11-27T10:17:16.052Z,10.30
2022-11-27T10:19:52.548Z,10.40
2022-11-27T10:22:30.596Z,10.30
2022-11-27T10:25:08.925Z,10.30
2022-11-27T10:27:54.327Z,10.40
2022-11-27T10:32:59.979Z,10.40
2022-11-27T10:38:23.403Z,10.40
2022-11-27T10:41:09.803Z,10.50
2022-11-27T10:43:42.461Z,10.60
2022-11-27T10:46:17.440Z,10.60
2022-11-27T10:49:06.505Z,10.70
2022-11-27T10:51:44.210Z,11.00
2022-11-27T10:54:24.870Z,10.60
2022-11-27T10:57:19.135Z,10.50
2022-11-27T10:59:57.704Z,10.40
2022-11-27T11:02:32.787Z,10.40
2022-11-27T11:05:41.022Z,10.50
2022-11-27T11:08:20.890Z,10.60
2022-11-27T11:10:55.965Z,10.70
2022-11-27T11:13:46.216Z,10.30
2022-11-27T11:16:24.368Z,10.90
2022-11-27T11:18:56.878Z,11.00
2022-11-27T11:21:30.466Z,11.10
2022-11-27T11:24:03.313Z,11.10
2022-11-27T11:26:36.912Z,11.00
2022-11-27T11:29:18.290Z,11.10
2022-11-27T11:31:48.663Z,11.10
2022-11-27T11:34:23.636Z,11.10
2022-11-27T11:37:00.311Z,11.20
2022-11-27T11:39:32.429Z,11.30
2022-11-27T11:42:02.980Z,11.30
2022-11-27T11:44:40.749Z,11.30
2022-11-27T11:47:25.186Z,11.30
2022-11-27T11:49:56.838Z,11.20
2022-11-27T11:52:40.832Z,11.20
2022-11-27T11:55:45.366Z,11.00
2022-11-27T11:58:47.072Z,11.00
2022-11-27T12:01:45.304Z,10.90
2022-11-27T12:04:53.944Z,10.80
2022-11-27T12:07:37.691Z,10.90
2022-11-27T12:10:15.846Z,10.90
2022-11-27T12:12:55.266Z,11.00
2022-11-27T12:15:32.724Z,11.30
2022-11-27T12:18:13.706Z,10.90
2022-11-27T12:20:56.606Z,11.00
2022-11-27T12:23:50.402Z,11.00
2022-11-27T12:26:29.951Z,11.10
2022-11-27T12:29:29.862Z,11.20
2022-11-27T12:32:21.304Z,11.20
2022-11-27T12:35:07.080Z,11.20
2022-11-27T12:37:49.064Z,11.20
2022-11-27T12:40:38.260Z,11.30
2022-11-27T12:43:20.610Z,11.30
2022-11-27T12:45:56.840Z,11.30
2022-11-27T12:48:32.854Z,11.20
2022-11-27T12:51:09.935Z,11.30
2022-11-27T12:53:45.836Z,11.30
2022-11-27T12:56:56.905Z,11.20
2022-11-27T12:59:33.884Z,11.20
2022-11-27T13:02:47.109Z,11.20
2022-11-27T13:05:23.173Z,11.30
2022-11-27T13:07:59.598Z,11.50
2022-11-27T13:10:35.519Z,11.40
2022-11-27T13:13:10.787Z,11.40
2022-11-27T13:15:43.990Z,11.40
2022-11-27T13:18:21.909Z,11.40
2022-11-27T13:20:54.282Z,11.40
2022-11-27T13:23:27.598Z,11.30
2022-11-27T13:25:59.763Z,11.40
2022-11-27T13:28:38.365Z,11.50
2022-11-27T13:31:09.954Z,11.50
2022-11-27T13:33:44.133Z,11.60
2022-11-27T13:36:36.396Z,11.60
2022-11-27T13:39:25.545Z,11.60
2022-11-27T13:42:17.975Z,11.60
2022-11-27T13:44:57.733Z,11.40
2022-11-27T13:47:31.208Z,11.00
2022-11-27T13:50:03.899Z,11.50
2022-11-27T13:52:34.233Z,11.40
2022-11-27T13:55:09.999Z,11.40
2022-11-27T13:57:42.365Z,11.40
2022-11-27T14:00:18.522Z,10.50
2022-11-27T14:02:50.890Z,11.20
2022-11-27T14:05:23.007Z,11.10
2022-11-27T14:07:57.547Z,11.20
2022-11-27T14:10:32.490Z,11.30
2022-11-27T14:13:05.275Z,11.30
2022-11-27T14:15:38.460Z,11.30
2022-11-27T14:18:11.544Z,10.60
2022-11-27T14:20:51.147Z,11.00
2022-11-27T14:23:31.477Z,11.00
2022-11-27T14:26:22.780Z,11.00
2022-11-27T14:28:55.270Z,11.00
2022-11-27T14:31:30.823Z,11.00
2022-11-27T14:34:20.885Z,11.10
2022-11-27T14:36:55.257Z,11.80
2022-11-27T14:39:27.508Z,11.10
2022-11-27T14:42:04.966Z,11.20
2022-11-27T14:44:35.433Z,11.30
2022-11-27T14:47:09.959Z,11.30
2022-11-27T14:49:42.361Z,11.40
2022-11-27T14:52:18.686Z,11.40
2022-11-27T14:54:49.005Z,11.40
2022-11-27T14:57:26.692Z,11.30
2022-11-27T15:00:18.803Z,11.20
2022-11-27T15:02:49.414Z,11.00
2022-11-27T15:05:25.777Z,11.10
2022-11-27T15:07:57.382Z,11.10
2022-11-27T15:10:38.330Z,11.10
2022-11-27T15:13:24.045Z,11.20
2022-11-27T15:16:01.030Z,10.80
2022-11-27T15:18:32.665Z,11.30
2022-11-27T15:21:04.356Z,11.20
2022-11-27T15:23:50.728Z,11.10
2022-11-27T15:26:35.070Z,11.10
2022-11-27T15:29:27.211Z,11.10
2022-11-27T15:31:58.320Z,11.20
2022-11-27T15:34:28.538Z,11.00
2022-11-27T15:37:01.850Z,11.00
2022-11-27T15:39:39.612Z,11.00
2022-11-27T15:42:14.803Z,10.90
2022-11-27T15:44:48.153Z,11.00
2022-11-27T15:47:26.916Z,11.10
2022-11-27T15:49:57.298Z,11.20
2022-11-27T15:52:28.116Z,11.00
2022-11-27T15:54:58.198Z,11.00
2022-11-27T16:00:01.830Z,11.00
2022-11-27T16:02:32.107Z,11.00
2022-11-27T16:05:02.175Z,11.00
2022-11-27T16:07:33.727Z,10.90
2022-11-27T16:10:04.001Z,11.00
2022-11-27T16:12:34.340Z,11.00
2022-11-27T16:15:07.624Z,11.20
2022-11-27T16:17:38.185Z,11.10
2022-11-27T16:20:10.059Z,11.10
2022-11-27T16:22:40.353Z,11.10
2022-11-27T16:25:11.534Z,11.00
2022-11-27T16:27:41.795Z,10.90
2022-11-27T16:30:15.904Z,11.00
2022-11-27T16:32:45.956Z,10.90
2022-11-27T16:35:19.400Z,11.00
2022-11-27T16:37:49.671Z,11.00
2022-11-27T16:40:21.143Z,11.00
2022-11-27T16:42:51.430Z,11.10
2022-11-27T16:45:26.984Z,11.20
2022-11-27T16:48:06.255Z,11.20
2022-11-27T16:50:36.878Z,11.20
2022-11-27T16:53:07.208Z,11.20
2022-11-27T16:55:37.535Z,11.20
2022-11-27T16:58:08.114Z,11.20
2022-11-27T17:00:41.224Z,11.10
2022-11-27T17:03:11.607Z,11.20
2022-11-27T17:05:41.796Z,10.70
2022-11-27T17:08:11.976Z,11.00
2022-11-27T17:10:44.273Z,11.00
2022-11-27T17:13:14.716Z,11.00
2022-11-27T17:15:47.609Z,11.00
2022-11-27T17:18:17.709Z,10.90
2022-11-27T17:20:47.886Z,10.80
2022-11-27T17:23:18.636Z,10.80
2022-11-27T17:25:48.826Z,10.70
2022-11-27T17:28:19.016Z,10.80
2022-11-27T17:30:51.954Z,10.80
2022-11-27T17:33:25.613Z,10.90
2022-11-27T17:35:55.561Z,10.90
2022-11-27T17:38:25.812Z,10.90
2022-11-27T17:40:55.906Z,10.80
2022-11-27T17:43:28.236Z,10.90
2022-11-27T17:46:01.376Z,10.90
2022-11-27T17:48:32.073Z,10.90
2022-11-27T17:51:03.777Z,11.00
2022-11-27T17:56:24.946Z,10.90
2022-11-27T17:58:55.336Z,10.90
2022-11-27T18:01:30.085Z,10.80
2022-11-27T18:04:22.691Z,10.60
2022-11-27T18:06:53.118Z,10.30
2022-11-27T18:09:23.429Z,10.60
2022-11-27T18:11:54.940Z,10.60
2022-11-27T18:14:25.101Z,10.60
2022-11-27T18:16:58.350Z,10.70
2022-11-27T18:19:28.356Z,10.70
2022-11-27T18:21:59.351Z,10.70
2022-11-27T18:24:32.737Z,10.50
2022-11-27T18:27:09.453Z,10.40
2022-11-27T18:29:58.976Z,10.40
2022-11-27T18:32:31.693Z,10.40
2022-11-27T18:35:01.889Z,10.40
2022-11-27T18:37:51.376Z,10.40
2022-11-27T18:40:21.589Z,10.50
2022-11-27T18:42:51.637Z,10.60
2022-11-27T18:45:32.935Z,11.10
2022-11-27T18:48:06.889Z,10.50
2022-11-27T18:50:37.405Z,10.40
2022-11-27T18:53:07.834Z,10.30
2022-11-27T18:55:38.164Z,10.40
2022-11-27T18:58:08.272Z,10.50
2022-11-27T19:00:38.753Z,10.40
2022-11-27T19:03:11.473Z,10.30
2022-11-27T19:05:41.740Z,10.40
2022-11-27T19:08:13.362Z,10.50
2022-11-27T19:10:43.849Z,10.50
2022-11-27T19:13:14.020Z,10.40
2022-11-27T19:15:47.609Z,11.30
2022-11-27T19:18:20.550Z,9.70
2022-11-27T19:20:51.076Z,10.00
2022-11-27T19:23:21.545Z,10.20
2022-11-27T19:25:58.232Z,10.30
2022-11-27T19:28:28.360Z,10.30
2022-11-27T19:30:58.616Z,10.10
2022-11-27T19:33:31.534Z,10.20
2022-11-27T19:36:06.987Z,10.20
2022-11-27T19:38:37.192Z,10.10
2022-11-27T19:41:11.127Z,10.10
2022-11-27T19:43:41.225Z,10.20
2022-11-27T19:46:17.553Z,10.30
2022-11-27T19:48:51.139Z,10.30
2022-11-27T19:51:21.812Z,10.30
2022-11-27T19:53:52.029Z,9.80
2022-11-27T19:56:22.701Z,10.40
2022-11-27T19:58:52.776Z,10.40
2022-11-27T20:01:23.609Z,10.20
2022-11-27T20:03:56.443Z,10.30
2022-11-27T20:06:28.773Z,10.30
2022-11-27T20:09:04.097Z,11.80
2022-11-27T20:11:35.839Z,10.30
2022-11-27T20:14:07.006Z,10.30
2022-11-27T20:16:38.434Z,10.30
2022-11-27T20:19:11.405Z,10.30
2022-11-27T20:21:42.291Z,10.40
2022-11-27T20:24:12.583Z,10.40
2022-11-27T20:26:52.085Z,11.20
2022-11-27T20:29:22.516Z,10.40
2022-11-27T20:31:53.175Z,10.10
2022-11-27T20:34:26.737Z,10.40
2022-11-27T20:36:57.002Z,10.30
2022-11-27T20:39:28.574Z,10.30
2022-11-27T20:41:58.968Z,10.30
2022-11-27T20:44:29.672Z,10.30
2022-11-27T20:47:00.193Z,10.00
2022-11-27T20:49:34.092Z,10.30
2022-11-27T20:52:05.725Z,10.20
2022-11-27T20:54:41.808Z,10.30
2022-11-27T20:57:14.407Z,10.20
2022-11-27T20:59:44.819Z,10.20
2022-11-27T21:02:15.955Z,9.40
2022-11-27T21:04:48.695Z,10.20
2022-11-27T21:07:19.679Z,10.20
2022-11-27T21:09:49.948Z,10.20
2022-11-27T21:12:20.163Z,10.30
2022-11-27T21:14:50.372Z,10.30
2022-11-27T21:17:20.592Z,10.40
2022-11-27T21:19:53.493Z,10.50
2022-11-27T21:22:23.808Z,10.40
2022-11-27T21:24:54.455Z,10.20
2022-11-27T21:27:24.982Z,10.50
2022-11-27T21:29:55.199Z,10.30
2022-11-27T21:32:26.803Z,10.50
2022-11-27T21:34:59.615Z,10.60
2022-11-27T21:37:29.748Z,10.60
2022-11-27T21:40:06.861Z,10.70
2022-11-27T21:42:41.575Z,10.80
2022-11-27T21:45:23.906Z,10.70
2022-11-27T21:47:54.191Z,10.80
2022-11-27T21:50:27.068Z,10.80
2022-11-27T21:52:57.224Z,10.70
2022-11-27T21:55:27.268Z,10.70
2022-11-27T21:57:57.449Z,10.70
2022-11-27T22:00:27.722Z,10.60
2022-11-27T22:02:58.008Z,10.60
2022-11-27T22:05:30.874Z,10.60
2022-11-27T22:08:01.221Z,10.60
2022-11-27T22:10:31.319Z,10.70
2022-11-27T22:13:01.537Z,10.80
2022-11-27T22:15:31.652Z,10.90
2022-11-27T22:18:01.763Z,10.90
2022-11-27T22:20:34.357Z,10.90
2022-11-27T22:23:04.591Z,10.80
2022-11-27T22:25:34.748Z,10.30
2022-11-27T22:28:04.857Z,10.90
2022-11-27T22:30:34.999Z,10.90
2022-11-27T22:33:05.228Z,11.00
2022-11-27T22:35:38.221Z,11.00
2022-11-27T22:38:08.392Z,11.00
2022-11-27T22:40:38.682Z,11.00
2022-11-27T22:43:08.823Z,11.10
2022-11-27T22:45:47.982Z,11.00
2022-11-27T22:48:18.476Z,11.10
2022-11-27T22:50:58.683Z,11.20
2022-11-27T22:53:29.291Z,11.20
2022-11-27T22:55:59.687Z,11.20
2022-11-27T22:58:30.798Z,11.10
2022-11-27T23:01:01.284Z,11.20
2022-11-27T23:03:32.168Z,11.10
2022-11-27T23:06:04.847Z,11.10
2022-11-27T23:08:34.948Z,11.10
2022-11-27T23:11:08.221Z,11.20
2022-11-27T23:13:38.486Z,11.10
2022-11-27T23:16:10.928Z,11.10
2022-11-27T23:18:41.950Z,11.10
2022-11-27T23:21:17.375Z,11.00
2022-11-27T23:23:48.604Z,11.00
2022-11-27T23:26:22.405Z,11.10
2022-11-27T23:28:55.838Z,11.20
2022-11-27T23:31:30.328Z,11.20
2022-11-27T23:34:03.148Z,11.00
2022-11-27T23:36:36.000Z,11.30
2022-11-27T23:39:08.972Z,10.90
2022-11-27T23:41:39.925Z,11.00
2022-11-27T23:44:10.168Z,11.00
2022-11-27T23:46:48.299Z,10.90
2022-11-27T23:51:58.688Z,10.80
2022-11-27T23:54:28.944Z,10.80
2022-11-27T23:56:59.113Z,10.80
2022-11-27T23:59:29.436Z,10.90
